Terminal Aerodrome Forecast
Issued by NWS

Home | Current Version | Previous Version | Text Only | Print | Product List | Glossary On
Versions: 1 2 3 4 5 6 7 8 9 10 11 12 13 14 15 16 17 18 19 20 21 22 23 24 25 26 27 28 29 30 31 32 33 34 35 36 37 38 39 40 41 42 43 44 45 46 47 48 49 50
000
FTUS43 KMKX 250520
TAFUES
TAF
KUES 250520Z 2506/2606 18003KT P6SM SCT120 SCT250
     FM251400 19008KT P6SM BKN080
     FM251900 18012KT P6SM VCTS SCT040CB BKN050
     FM252200 18009KT P6SM BKN040
     FM260200 18007KT P6SM VCTS OVC035CB=

USA.gov is the U.S. government's official web portal to all federal, state and local government web resources and services.